createdAt,value
2023-04-21T00:00:23.880Z,7.37
2023-04-21T00:03:10.940Z,6.07
2023-04-21T00:06:01.471Z,5.70
2023-04-21T00:08:49.286Z,5.20
2023-04-21T00:11:36.388Z,6.03
2023-04-21T00:14:23.393Z,6.30
2023-04-21T00:17:10.327Z,6.17
2023-04-21T00:19:57.333Z,6.20
2023-04-21T00:22:44.237Z,7.70
2023-04-21T00:25:31.251Z,7.23
2023-04-21T00:28:18.654Z,7.27
2023-04-21T00:31:05.854Z,8.07
2023-04-21T00:33:54.001Z,6.53
2023-04-21T00:36:42.571Z,7.47
2023-04-21T00:39:29.663Z,6.83
2023-04-21T00:42:17.258Z,6.77
2023-04-21T00:45:05.173Z,6.73
2023-04-21T00:47:52.452Z,6.50
2023-04-21T00:50:39.939Z,6.90
2023-04-21T00:53:26.952Z,7.17
2023-04-21T00:56:14.306Z,6.43
2023-04-21T00:59:02.137Z,6.30
2023-04-21T01:01:49.387Z,7.77
2023-04-21T01:04:39.520Z,7.93
2023-04-21T01:07:27.112Z,6.77
2023-04-21T01:10:14.079Z,6.47
2023-04-21T01:13:01.006Z,6.20
2023-04-21T01:15:49.128Z,6.53
2023-04-21T01:18:36.964Z,7.60
2023-04-21T01:21:23.980Z,5.43
2023-04-21T01:24:11.901Z,6.00
2023-04-21T01:26:58.860Z,5.93
2023-04-21T01:29:50.659Z,6.20
2023-04-21T01:32:37.705Z,7.23
2023-04-21T01:35:24.632Z,6.17
2023-04-21T01:38:12.190Z,6.30
2023-04-21T01:40:59.204Z,7.60
2023-04-21T01:43:47.927Z,6.37
2023-04-21T01:46:34.947Z,6.30
2023-04-21T01:49:23.168Z,7.43
2023-04-21T01:52:10.275Z,8.07
2023-04-21T01:54:57.284Z,7.63
2023-04-21T01:57:44.212Z,6.37
2023-04-21T02:00:31.821Z,7.60
2023-04-21T02:03:19.187Z,7.90
2023-04-21T02:06:06.596Z,7.27
2023-04-21T02:08:53.589Z,7.03
2023-04-21T02:11:40.633Z,6.97
2023-04-21T02:14:27.895Z,6.83
2023-04-21T02:17:15.250Z,6.90
2023-04-21T02:20:04.189Z,7.43
2023-04-21T02:22:51.239Z,6.17
2023-04-21T02:25:38.231Z,6.53
2023-04-21T02:28:25.489Z,6.50
2023-04-21T02:31:12.678Z,6.90
2023-04-21T02:33:59.667Z,6.37
2023-04-21T02:36:47.033Z,5.93
2023-04-21T02:39:33.955Z,6.73
2023-04-21T02:42:21.069Z,6.60
2023-04-21T02:45:09.051Z,7.50
2023-04-21T02:47:56.135Z,7.20
2023-04-21T02:50:43.352Z,6.20
2023-04-21T02:53:30.805Z,7.77
2023-04-21T02:56:17.837Z,7.27
2023-04-21T02:59:05.259Z,6.13
2023-04-21T03:01:52.203Z,6.47
2023-04-21T03:04:39.380Z,7.43
2023-04-21T03:07:26.488Z,6.17
2023-04-21T03:10:13.542Z,6.60
2023-04-21T03:13:00.544Z,6.73
2023-04-21T03:15:47.581Z,7.73
2023-04-21T03:18:36.535Z,6.23
2023-04-21T03:21:23.542Z,6.47
2023-04-21T03:24:11.027Z,6.33
2023-04-21T03:26:58.384Z,6.50
2023-04-21T03:29:45.389Z,6.27
2023-04-21T03:32:32.459Z,6.83
2023-04-21T03:35:19.404Z,6.57
2023-04-21T03:38:06.335Z,6.73
2023-04-21T03:40:53.353Z,7.17
2023-04-21T03:43:41.024Z,7.43
2023-04-21T03:46:28.007Z,6.47
2023-04-21T03:49:14.942Z,6.60
2023-04-21T03:52:02.102Z,8.43
2023-04-21T03:54:49.367Z,7.17
2023-04-21T03:57:36.296Z,6.83
2023-04-21T04:00:23.420Z,6.83
2023-04-21T04:03:10.519Z,7.50
2023-04-21T04:05:57.606Z,7.20
2023-04-21T04:08:44.554Z,7.43
2023-04-21T04:11:32.259Z,7.40
2023-04-21T04:14:19.186Z,6.57
2023-04-21T04:17:06.277Z,7.63
2023-04-21T04:19:53.279Z,8.07
2023-04-21T04:22:40.244Z,7.43
2023-04-21T04:25:27.179Z,8.30
2023-04-21T04:28:15.390Z,7.07
2023-04-21T04:31:03.052Z,7.47
2023-04-21T04:33:50.540Z,6.67
2023-04-21T04:36:38.628Z,9.10
2023-04-21T04:39:25.787Z,8.00
2023-04-21T04:42:12.823Z,8.20
2023-04-21T04:45:01.751Z,9.97
2023-04-21T04:47:49.960Z,9.57
2023-04-21T04:50:36.956Z,10.27
2023-04-21T04:53:23.886Z,9.67
2023-04-21T04:56:10.809Z,8.53
2023-04-21T04:58:57.761Z,8.80
2023-04-21T05:01:44.829Z,9.40
2023-04-21T05:04:32.066Z,8.90
2023-04-21T05:07:19.599Z,9.03
2023-04-21T05:10:07.069Z,9.50
2023-04-21T05:12:53.999Z,9.13
2023-04-21T05:15:40.917Z,9.13
2023-04-21T05:18:28.259Z,9.10
2023-04-21T05:21:27.475Z,10.00
2023-04-21T05:24:14.844Z,9.83
2023-04-21T05:27:02.958Z,8.87
2023-04-21T05:29:49.874Z,8.97
2023-04-21T05:32:37.060Z,9.47
2023-04-21T05:35:24.026Z,10.97
2023-04-21T05:38:10.980Z,11.03
2023-04-21T05:40:57.972Z,10.60
2023-04-21T05:43:44.903Z,10.10
2023-04-21T05:46:34.722Z,8.80
2023-04-21T05:49:21.919Z,8.77
2023-04-21T05:52:10.446Z,9.47
2023-04-21T05:54:59.379Z,10.33
2023-04-21T05:57:46.362Z,11.37
2023-04-21T06:00:33.478Z,10.50
2023-04-21T06:03:20.574Z,10.07
2023-04-21T06:06:09.076Z,10.00
2023-04-21T06:08:56.123Z,9.73
2023-04-21T06:11:43.080Z,10.80
2023-04-21T06:14:30.253Z,11.37
2023-04-21T06:17:18.083Z,10.47
2023-04-21T06:20:05.626Z,10.67
2023-04-21T06:22:52.592Z,10.97
2023-04-21T06:25:39.511Z,10.33
2023-04-21T06:28:26.669Z,10.47
2023-04-21T06:31:16.341Z,11.00
2023-04-21T06:34:03.291Z,11.00
2023-04-21T06:36:50.369Z,10.03
2023-04-21T06:39:37.296Z,10.63
2023-04-21T06:42:24.525Z,11.50
2023-04-21T06:45:11.588Z,10.53
2023-04-21T06:47:58.664Z,11.23
2023-04-21T06:50:46.441Z,11.47
2023-04-21T06:53:33.493Z,9.37
2023-04-21T06:56:21.170Z,11.13
2023-04-21T06:59:08.921Z,10.17
2023-04-21T07:01:56.015Z,10.73
2023-04-21T07:04:43.008Z,9.93
2023-04-21T07:07:30.014Z,10.47
2023-04-21T07:10:19.393Z,9.67
2023-04-21T07:13:08.205Z,9.47
2023-04-21T07:15:57.086Z,9.53
2023-04-21T07:18:44.011Z,8.97
2023-04-21T07:21:32.061Z,9.10
2023-04-21T07:24:19.220Z,9.50
2023-04-21T07:27:06.277Z,9.93
2023-04-21T07:29:53.188Z,9.90
2023-04-21T07:32:40.416Z,9.70
2023-04-21T07:35:27.500Z,9.50
2023-04-21T07:38:14.448Z,9.17
2023-04-21T07:41:01.448Z,9.77
2023-04-21T07:43:48.427Z,9.23
2023-04-21T07:46:35.437Z,8.63
2023-04-21T07:49:22.630Z,9.37
2023-04-21T07:52:10.042Z,8.93
2023-04-21T07:54:57.000Z,8.33
2023-04-21T07:57:44.092Z,7.00
2023-04-21T08:00:31.085Z,7.33
2023-04-21T08:03:18.225Z,6.47
2023-04-21T08:06:05.925Z,6.60
2023-04-21T08:08:54.314Z,6.63
2023-04-21T08:11:41.380Z,6.77
2023-04-21T08:14:28.538Z,5.37
2023-04-21T08:17:16.258Z,5.50
2023-04-21T08:20:04.389Z,6.50
2023-04-21T08:22:51.589Z,5.83
2023-04-21T08:25:38.597Z,6.37
2023-04-21T08:28:25.657Z,6.07
2023-04-21T08:31:12.600Z,5.87
2023-04-21T08:34:02.810Z,5.83
2023-04-21T08:36:50.104Z,5.93
2023-04-21T08:39:37.070Z,6.47
2023-04-21T08:42:24.052Z,6.03
2023-04-21T08:45:11.588Z,5.83
2023-04-21T08:48:01.063Z,6.47
2023-04-21T08:50:50.258Z,7.23
2023-04-21T08:53:38.189Z,7.20
2023-04-21T08:56:26.205Z,7.20
2023-04-21T08:59:13.340Z,6.63
2023-04-21T09:02:10.851Z,6.40
2023-04-21T09:04:59.992Z,6.53
2023-04-21T09:07:47.218Z,6.30
2023-04-21T09:10:34.409Z,7.10
2023-04-21T09:13:23.163Z,7.27
2023-04-21T09:16:21.945Z,6.23
2023-04-21T09:19:16.314Z,7.67
2023-04-21T09:22:04.086Z,8.00
2023-04-21T09:24:57.914Z,6.90
2023-04-21T09:27:46.161Z,5.87
2023-04-21T09:30:36.445Z,8.30
2023-04-21T09:33:29.369Z,7.67
2023-04-21T09:36:24.316Z,8.47
2023-04-21T09:42:02.219Z,6.03
2023-04-21T09:44:56.298Z,5.13
2023-04-21T09:47:53.079Z,5.17
2023-04-21T09:51:22.095Z,5.03
2023-04-21T09:53:50.770Z,5.50
2023-04-21T09:56:41.016Z,5.23
2023-04-21T09:59:40.645Z,4.70
2023-04-21T10:02:31.284Z,4.50
2023-04-21T10:05:18.359Z,4.33
2023-04-21T10:08:07.344Z,4.43
2023-04-21T10:10:54.868Z,4.60
2023-04-21T10:13:42.119Z,4.67
2023-04-21T10:16:29.148Z,4.93
2023-04-21T10:19:27.404Z,4.40
2023-04-21T10:22:14.400Z,4.77
2023-04-21T10:25:03.503Z,4.60
2023-04-21T10:27:51.247Z,5.10
2023-04-21T10:30:38.254Z,4.47
2023-04-21T10:33:27.254Z,4.27
2023-04-21T10:36:24.856Z,4.50
2023-04-21T10:39:14.651Z,4.40
2023-04-21T10:42:13.625Z,4.00
2023-04-21T10:45:05.413Z,4.37
2023-04-21T10:47:53.482Z,4.30
2023-04-21T10:50:40.408Z,3.90
2023-04-21T10:53:27.316Z,3.80
2023-04-21T10:56:14.878Z,3.47
2023-04-21T10:59:01.961Z,3.33
2023-04-21T11:01:49.171Z,3.70
2023-04-21T11:04:37.063Z,3.70
2023-04-21T11:07:24.551Z,3.90
2023-04-21T11:10:11.590Z,3.20
2023-04-21T11:12:58.559Z,2.90
2023-04-21T11:16:06.791Z,2.70
2023-04-21T11:18:56.841Z,2.30
2023-04-21T11:21:43.805Z,2.57
2023-04-21T11:24:34.478Z,2.20
2023-04-21T11:27:22.366Z,2.27
2023-04-21T11:30:10.083Z,2.40
2023-04-21T11:32:57.139Z,2.47
2023-04-21T11:35:44.157Z,2.23
2023-04-21T11:38:41.429Z,2.80
2023-04-21T11:41:28.413Z,4.80
2023-04-21T11:44:32.994Z,2.57
2023-04-21T11:47:22.468Z,4.13
2023-04-21T11:50:10.700Z,2.53
2023-04-21T11:52:57.737Z,2.23
2023-04-21T11:55:47.924Z,2.60
2023-04-21T11:58:34.931Z,2.60
2023-04-21T12:01:22.486Z,2.27
2023-04-21T12:04:14.834Z,2.53
2023-04-21T12:07:02.890Z,2.10
2023-04-21T12:09:53.594Z,2.23
2023-04-21T12:12:42.706Z,2.33
2023-04-21T12:15:30.720Z,2.23
2023-04-21T12:18:17.708Z,2.10
2023-04-21T12:21:04.756Z,2.00
2023-04-21T12:23:51.686Z,2.50
2023-04-21T12:26:38.632Z,2.27
2023-04-21T12:29:25.644Z,2.17
2023-04-21T12:32:12.880Z,2.27
2023-04-21T12:35:00.610Z,2.23
2023-04-21T12:37:47.683Z,2.30
2023-04-21T12:40:35.413Z,2.20
2023-04-21T12:43:22.458Z,2.33
2023-04-21T12:46:09.491Z,2.00
2023-04-21T12:48:56.533Z,2.03
2023-04-21T12:51:44.400Z,2.17
2023-04-21T12:54:31.589Z,2.00
2023-04-21T12:57:20.985Z,1.90
2023-04-21T13:00:08.886Z,1.80
2023-04-21T13:02:56.034Z,1.80
2023-04-21T13:05:45.700Z,2.07
2023-04-21T13:08:32.869Z,1.80
2023-04-21T13:11:19.832Z,1.80
2023-04-21T13:14:07.061Z,2.00
2023-04-21T13:16:54.135Z,1.77
2023-04-21T13:19:41.237Z,1.60
2023-04-21T13:22:28.270Z,2.10
2023-04-21T13:25:15.519Z,2.23
2023-04-21T13:28:02.539Z,1.80
2023-04-21T13:30:51.897Z,1.67
2023-04-21T13:33:38.946Z,2.50
2023-04-21T13:36:25.877Z,2.10
2023-04-21T13:39:12.925Z,2.00
2023-04-21T13:41:59.870Z,1.77
2023-04-21T13:44:46.862Z,1.70
2023-04-21T13:47:34.500Z,1.53
2023-04-21T13:50:21.682Z,1.80
2023-04-21T13:53:09.056Z,1.43
2023-04-21T13:55:57.452Z,1.63
2023-04-21T13:58:44.443Z,1.60
2023-04-21T14:01:31.494Z,1.77
2023-04-21T14:04:20.708Z,1.47
2023-04-21T14:07:08.103Z,1.73
2023-04-21T14:09:55.210Z,1.67
2023-04-21T14:12:44.353Z,1.50
2023-04-21T14:15:31.869Z,2.27
2023-04-21T14:18:18.927Z,1.80
2023-04-21T14:21:06.100Z,1.40
2023-04-21T14:23:53.039Z,1.30
2023-04-21T14:26:39.964Z,1.37
2023-04-21T14:29:27.080Z,2.73
2023-04-21T14:32:14.110Z,1.47
2023-04-21T14:35:03.337Z,1.70
2023-04-21T14:37:51.675Z,1.33
2023-04-21T14:40:40.315Z,1.30
2023-04-21T14:43:27.277Z,1.50
2023-04-21T14:46:14.499Z,1.30
2023-04-21T14:49:01.595Z,1.40
2023-04-21T14:51:49.655Z,2.27
2023-04-21T14:54:36.682Z,1.53
2023-04-21T14:57:24.041Z,1.53
2023-04-21T15:00:12.182Z,1.20
2023-04-21T15:02:59.334Z,1.47
2023-04-21T15:05:46.439Z,1.20
2023-04-21T15:08:34.852Z,1.30
2023-04-21T15:11:21.888Z,1.50
2023-04-21T15:14:08.845Z,1.17
2023-04-21T15:16:55.926Z,1.23
2023-04-21T15:19:42.941Z,1.03
2023-04-21T15:22:30.343Z,1.43
2023-04-21T15:25:17.341Z,1.30
2023-04-21T15:28:04.396Z,1.30
2023-04-21T15:30:51.485Z,1.50
2023-04-21T15:33:38.470Z,2.00
2023-04-21T15:36:25.474Z,1.30
2023-04-21T15:39:14.158Z,1.40
2023-04-21T15:42:01.587Z,1.47
2023-04-21T15:44:48.597Z,1.20
2023-04-21T15:47:35.636Z,1.40
2023-04-21T15:50:22.700Z,1.20
2023-04-21T15:53:09.735Z,1.40
2023-04-21T15:55:56.643Z,1.20
2023-04-21T15:58:44.128Z,1.30
2023-04-21T16:01:31.342Z,1.40
2023-04-21T16:04:18.581Z,1.50
2023-04-21T16:07:06.758Z,1.40
2023-04-21T16:09:53.709Z,1.60
2023-04-21T16:12:41.650Z,1.50
2023-04-21T16:15:28.803Z,1.20
2023-04-21T16:18:16.245Z,1.10
2023-04-21T16:21:03.527Z,1.30
2023-04-21T16:23:50.543Z,1.13
2023-04-21T16:26:37.581Z,1.40
2023-04-21T16:29:24.570Z,1.10
2023-04-21T16:32:11.600Z,1.27
2023-04-21T16:34:58.630Z,1.00
2023-04-21T16:37:45.877Z,1.17
2023-04-21T16:40:33.215Z,1.30
2023-04-21T16:43:20.267Z,1.30
2023-04-21T16:46:07.233Z,1.20
2023-04-21T16:48:54.344Z,1.20
2023-04-21T16:51:44.620Z,1.40
2023-04-21T16:54:31.651Z,1.30
2023-04-21T16:57:18.818Z,1.20
2023-04-21T17:00:07.163Z,1.53
2023-04-21T17:02:54.549Z,1.37
2023-04-21T17:05:41.650Z,1.30
2023-04-21T17:08:28.606Z,1.17
2023-04-21T17:11:15.740Z,1.30
2023-04-21T17:14:02.714Z,1.40
2023-04-21T17:16:49.925Z,1.40
2023-04-21T17:19:36.928Z,1.27
2023-04-21T17:22:23.890Z,1.40
2023-04-21T17:25:11.744Z,1.50
2023-04-21T17:27:58.750Z,1.50
2023-04-21T17:30:45.754Z,1.30
2023-04-21T17:33:32.819Z,1.40
2023-04-21T17:36:19.835Z,1.00
2023-04-21T17:39:06.796Z,1.30
2023-04-21T17:41:53.815Z,1.20
2023-04-21T17:44:41.345Z,1.20
2023-04-21T17:47:28.384Z,1.20
2023-04-21T17:50:15.517Z,1.30
2023-04-21T17:53:02.441Z,1.53
2023-04-21T17:55:49.920Z,1.27
2023-04-21T17:58:36.926Z,1.17
2023-04-21T18:01:23.920Z,1.20
2023-04-21T18:04:11.139Z,1.27
2023-04-21T18:06:58.953Z,1.60
2023-04-21T18:09:48.828Z,1.73
2023-04-21T18:12:35.801Z,1.73
2023-04-21T18:15:22.859Z,1.67
2023-04-21T18:18:09.796Z,1.73
2023-04-21T18:20:57.532Z,1.50
2023-04-21T18:23:44.468Z,2.27
2023-04-21T18:26:31.738Z,2.10
2023-04-21T18:29:19.554Z,1.40
2023-04-21T18:32:06.710Z,1.67
2023-04-21T18:34:53.893Z,1.60
2023-04-21T18:37:40.827Z,1.70
2023-04-21T18:40:27.918Z,1.90
2023-04-21T18:43:15.140Z,1.80
2023-04-21T18:46:02.077Z,1.60
2023-04-21T18:48:49.087Z,1.40
2023-04-21T18:51:36.256Z,1.30
2023-04-21T18:54:23.320Z,2.00
2023-04-21T18:57:10.326Z,1.90
2023-04-21T18:59:57.246Z,1.93
2023-04-21T19:02:48.568Z,3.10
2023-04-21T19:05:37.020Z,1.40
2023-04-21T19:08:38.264Z,1.43
2023-04-21T19:11:28.863Z,1.50
2023-04-21T19:14:15.856Z,1.77
2023-04-21T19:17:03.225Z,1.73
2023-04-21T19:19:51.080Z,1.77
2023-04-21T19:22:38.390Z,1.53
2023-04-21T19:25:25.402Z,1.80
2023-04-21T19:28:12.391Z,1.40
2023-04-21T19:30:59.332Z,1.73
2023-04-21T19:33:46.458Z,2.20
2023-04-21T19:36:33.788Z,1.70
2023-04-21T19:39:20.846Z,1.67
2023-04-21T19:42:08.268Z,1.93
2023-04-21T19:44:55.206Z,1.80
2023-04-21T19:47:42.266Z,1.60
2023-04-21T19:50:29.308Z,2.60
2023-04-21T19:53:17.156Z,3.33
2023-04-21T19:56:04.139Z,2.67
2023-04-21T19:58:51.337Z,2.50
2023-04-21T20:01:38.320Z,3.10
2023-04-21T20:04:25.725Z,4.67
2023-04-21T20:07:13.125Z,3.47
2023-04-21T20:10:00.354Z,3.30
2023-04-21T20:12:47.314Z,2.73
2023-04-21T20:15:34.675Z,4.60
2023-04-21T20:18:21.764Z,3.03
2023-04-21T20:21:08.741Z,3.60
2023-04-21T20:23:55.771Z,3.60
2023-04-21T20:26:42.849Z,2.90
2023-04-21T20:29:30.905Z,3.17
2023-04-21T20:32:17.904Z,3.03
2023-04-21T20:35:05.515Z,2.90
2023-04-21T20:37:53.438Z,2.80
2023-04-21T20:40:40.451Z,3.07
2023-04-21T20:43:28.325Z,3.63
2023-04-21T20:46:15.698Z,3.10
2023-04-21T20:49:02.748Z,2.53
2023-04-21T20:51:59.731Z,3.07
2023-04-21T20:54:46.676Z,2.70
2023-04-21T20:57:33.672Z,2.70
2023-04-21T21:00:20.736Z,2.93
2023-04-21T21:03:10.209Z,3.37
2023-04-21T21:05:57.340Z,2.87
2023-04-21T21:08:44.393Z,2.93
2023-04-21T21:11:31.451Z,3.13
2023-04-21T21:14:18.578Z,2.80
2023-04-21T21:17:05.790Z,2.50
2023-04-21T21:19:52.899Z,3.00
2023-04-21T21:22:39.886Z,2.70
2023-04-21T21:25:27.003Z,2.67
2023-04-21T21:28:13.938Z,2.07
2023-04-21T21:31:00.932Z,2.63
2023-04-21T21:33:47.987Z,2.33
2023-04-21T21:36:35.021Z,2.63
2023-04-21T21:39:22.045Z,2.60
2023-04-21T21:42:09.040Z,1.90
2023-04-21T21:44:56.013Z,2.27
2023-04-21T21:47:45.503Z,2.27
2023-04-21T21:50:32.875Z,2.57
2023-04-21T21:53:19.836Z,2.33
2023-04-21T21:56:06.890Z,2.23
2023-04-21T21:58:54.370Z,2.40
2023-04-21T22:01:41.909Z,1.90
2023-04-21T22:04:28.933Z,2.10
2023-04-21T22:07:15.900Z,2.90
2023-04-21T22:10:03.966Z,2.20
2023-04-21T22:12:53.677Z,2.20
2023-04-21T22:15:41.240Z,2.03
2023-04-21T22:18:29.890Z,2.20
2023-04-21T22:21:17.012Z,2.17
2023-04-21T22:24:04.668Z,2.33
2023-04-21T22:26:51.666Z,2.40
2023-04-21T22:29:39.045Z,2.20
2023-04-21T22:32:26.506Z,2.30
2023-04-21T22:35:13.483Z,2.20
2023-04-21T22:38:00.467Z,2.30
2023-04-21T22:40:47.468Z,3.30
2023-04-21T22:43:34.660Z,3.60
2023-04-21T22:46:21.684Z,3.50
2023-04-21T22:49:09.219Z,2.90
2023-04-21T22:51:56.185Z,3.10
2023-04-21T22:54:43.123Z,2.87
2023-04-21T22:57:30.125Z,2.90
2023-04-21T23:00:17.185Z,3.30
2023-04-21T23:03:04.451Z,3.03
2023-04-21T23:05:51.504Z,2.70
2023-04-21T23:08:38.582Z,2.43
2023-04-21T23:11:25.688Z,3.00
2023-04-21T23:14:12.650Z,2.40
2023-04-21T23:19:46.660Z,2.60
2023-04-21T23:22:33.628Z,2.93
2023-04-21T23:25:20.791Z,2.60
2023-04-21T23:28:07.778Z,2.90
2023-04-21T23:30:54.822Z,3.00
2023-04-21T23:33:41.788Z,2.57
2023-04-21T23:36:28.767Z,3.10
2023-04-21T23:39:17.975Z,2.50
2023-04-21T23:42:05.142Z,2.70
2023-04-21T23:44:52.071Z,2.77
2023-04-21T23:47:39.059Z,2.60
2023-04-21T23:50:26.122Z,2.50
2023-04-21T23:53:13.134Z,4.30
2023-04-21T23:56:00.565Z,3.03
2023-04-21T23:58:47.528Z,2.87
